createdAt,value
2023-02-02T00:01:25.487Z,16.83
2023-02-02T00:03:52.740Z,18.48
2023-02-02T00:06:25.766Z,13.48
2023-02-02T00:08:53.142Z,12.07
2023-02-02T00:11:20.682Z,19.00
2023-02-02T00:13:47.642Z,14.07
2023-02-02T00:16:26.490Z,13.73
2023-02-02T00:18:56.096Z,10.40
2023-02-02T00:21:23.443Z,14.70
2023-02-02T00:23:50.720Z,14.50
2023-02-02T00:26:18.807Z,13.18
2023-02-02T00:28:45.813Z,15.23
2023-02-02T00:31:13.122Z,13.18
2023-02-02T00:33:40.104Z,21.30
2023-02-02T00:36:07.633Z,19.45
2023-02-02T00:38:34.864Z,16.65
2023-02-02T00:41:01.622Z,13.18
2023-02-02T00:43:28.420Z,19.45
2023-02-02T00:45:55.262Z,16.85
2023-02-02T00:48:22.772Z,17.23
2023-02-02T00:50:49.962Z,10.45
2023-02-02T00:53:16.753Z,11.60
2023-02-02T00:55:44.259Z,15.18
2023-02-02T00:58:11.157Z,11.13
2023-02-02T01:00:38.066Z,17.40
2023-02-02T01:03:07.134Z,16.30
2023-02-02T01:05:34.874Z,17.15
2023-02-02T01:08:02.283Z,15.65
2023-02-02T01:10:29.235Z,12.40
2023-02-02T01:12:56.143Z,13.63
2023-02-02T01:15:23.382Z,18.05
2023-02-02T01:17:50.430Z,18.00
2023-02-02T01:20:20.371Z,21.73
2023-02-02T01:22:47.833Z,18.90
2023-02-02T01:25:15.011Z,19.50
2023-02-02T01:27:43.160Z,21.08
2023-02-02T01:30:11.408Z,14.43
2023-02-02T01:32:38.158Z,17.13
2023-02-02T01:35:05.554Z,16.60
2023-02-02T01:37:32.354Z,16.95
2023-02-02T01:39:59.129Z,17.45
2023-02-02T01:42:26.466Z,15.85
2023-02-02T01:44:55.887Z,20.13
2023-02-02T01:47:28.718Z,20.13
2023-02-02T01:49:56.266Z,15.07
2023-02-02T01:52:26.559Z,10.07
2023-02-02T01:55:00.394Z,18.92
2023-02-02T01:57:40.020Z,18.20
2023-02-02T02:00:12.285Z,19.23
2023-02-02T02:02:42.158Z,12.55
2023-02-02T02:05:10.446Z,19.13
2023-02-02T02:07:40.749Z,23.17
2023-02-02T02:10:08.732Z,12.05
2023-02-02T02:12:35.514Z,13.48
2023-02-02T02:15:21.121Z,18.67
2023-02-02T02:18:41.036Z,12.85
2023-02-02T02:22:27.076Z,14.52
2023-02-02T02:25:39.071Z,13.32
2023-02-02T02:28:45.831Z,14.65
2023-02-02T02:31:50.016Z,13.60
2023-02-02T02:34:50.332Z,10.90
2023-02-02T02:37:30.676Z,19.48
2023-02-02T02:40:21.894Z,11.43
2023-02-02T02:43:41.025Z,14.38
2023-02-02T02:46:09.935Z,15.23
2023-02-02T02:48:36.701Z,17.00
2023-02-02T02:51:39.542Z,13.30
2023-02-02T02:54:07.333Z,17.23
2023-02-02T02:57:05.526Z,14.25
2023-02-02T03:00:29.123Z,11.82
2023-02-02T03:03:21.897Z,16.40
2023-02-02T03:06:08.843Z,13.90
2023-02-02T03:09:07.981Z,10.43
2023-02-02T03:11:35.961Z,12.40
2023-02-02T03:14:03.411Z,14.05
2023-02-02T03:16:30.185Z,12.43
2023-02-02T03:18:57.851Z,12.23
2023-02-02T03:21:24.821Z,13.13
2023-02-02T03:23:51.652Z,11.55
2023-02-02T03:26:18.597Z,11.00
2023-02-02T03:28:45.553Z,16.80
2023-02-02T03:31:12.451Z,15.30
2023-02-02T03:33:39.655Z,10.10
2023-02-02T03:36:07.350Z,11.05
2023-02-02T03:38:34.230Z,13.70
2023-02-02T03:41:01.146Z,11.75
2023-02-02T03:43:28.011Z,12.40
2023-02-02T03:46:06.155Z,9.30
2023-02-02T03:48:37.403Z,8.68
2023-02-02T03:51:13.381Z,12.40
2023-02-02T03:53:44.450Z,11.30
2023-02-02T03:56:11.678Z,12.85
2023-02-02T03:58:38.458Z,13.48
2023-02-02T04:01:12.976Z,11.63
2023-02-02T04:03:39.941Z,10.07
2023-02-02T04:06:06.904Z,10.80
2023-02-02T04:08:34.426Z,11.85
2023-02-02T04:11:01.760Z,11.77
2023-02-02T04:13:28.549Z,10.75
2023-02-02T04:16:02.080Z,8.43
2023-02-02T04:18:29.581Z,12.40
2023-02-02T04:21:01.310Z,10.38
2023-02-02T04:23:31.681Z,13.60
2023-02-02T04:25:59.449Z,12.93
2023-02-02T04:28:27.709Z,10.07
2023-02-02T04:30:56.142Z,13.77
2023-02-02T04:33:25.212Z,11.77
2023-02-02T04:35:52.089Z,12.32
2023-02-02T04:38:19.543Z,7.93
2023-02-02T04:40:48.484Z,8.02
2023-02-02T04:43:15.852Z,8.85
2023-02-02T04:45:42.872Z,11.07
2023-02-02T04:48:10.203Z,9.30
2023-02-02T04:50:37.242Z,12.55
2023-02-02T04:53:04.831Z,12.27
2023-02-02T04:55:31.909Z,8.90
2023-02-02T04:57:58.696Z,10.05
2023-02-02T05:00:25.509Z,9.98
2023-02-02T05:02:52.310Z,7.47
2023-02-02T05:05:20.578Z,9.20
2023-02-02T05:07:47.739Z,7.95
2023-02-02T05:10:14.735Z,8.82
2023-02-02T05:12:41.493Z,11.93
2023-02-02T05:15:09.247Z,10.98
2023-02-02T05:17:35.997Z,7.32
2023-02-02T05:20:02.882Z,14.57
2023-02-02T05:22:29.794Z,10.13
2023-02-02T05:24:56.572Z,10.27
2023-02-02T05:27:23.372Z,9.13
2023-02-02T05:29:50.133Z,7.50
2023-02-02T05:32:17.444Z,6.60
2023-02-02T05:34:44.809Z,9.02
2023-02-02T05:37:11.570Z,11.80
2023-02-02T05:39:38.531Z,13.85
2023-02-02T05:42:05.341Z,11.38
2023-02-02T05:44:32.219Z,11.15
2023-02-02T05:46:59.187Z,11.65
2023-02-02T05:49:26.347Z,13.68
2023-02-02T05:51:57.417Z,10.98
2023-02-02T05:54:24.689Z,10.27
2023-02-02T05:56:54.832Z,13.88
2023-02-02T05:59:22.176Z,16.70
2023-02-02T06:01:49.524Z,11.23
2023-02-02T06:04:17.074Z,16.15
2023-02-02T06:06:44.663Z,14.32
2023-02-02T06:09:11.920Z,16.65
2023-02-02T06:11:39.650Z,10.77
2023-02-02T06:14:07.509Z,14.65
2023-02-02T06:16:34.580Z,13.20
2023-02-02T06:19:01.643Z,12.13
2023-02-02T06:21:31.252Z,10.35
2023-02-02T06:23:59.611Z,9.23
2023-02-02T06:26:27.062Z,9.23
2023-02-02T06:28:55.153Z,12.60
2023-02-02T06:31:23.581Z,10.80
2023-02-02T06:33:56.784Z,10.70
2023-02-02T06:36:26.330Z,12.93
2023-02-02T06:38:56.576Z,7.20
2023-02-02T06:41:24.494Z,9.45
2023-02-02T06:43:51.996Z,6.60
2023-02-02T06:46:18.958Z,13.02
2023-02-02T06:48:46.160Z,8.68
2023-02-02T06:51:12.987Z,8.00
2023-02-02T06:53:39.785Z,8.65
2023-02-02T06:56:11.817Z,7.88
2023-02-02T06:58:39.238Z,9.98
2023-02-02T07:01:12.459Z,12.27
2023-02-02T07:03:39.808Z,4.97
2023-02-02T07:06:21.622Z,8.82
2023-02-02T07:09:01.559Z,4.82
2023-02-02T07:11:37.652Z,11.38
2023-02-02T07:14:09.677Z,9.55
2023-02-02T07:16:36.527Z,4.20
2023-02-02T07:19:03.654Z,5.18
2023-02-02T07:21:35.943Z,5.03
2023-02-02T07:24:05.644Z,9.75
2023-02-02T07:26:36.051Z,5.75
2023-02-02T07:29:04.709Z,8.70
2023-02-02T07:31:33.012Z,9.20
2023-02-02T07:34:01.614Z,6.05
2023-02-02T07:36:28.441Z,6.28
2023-02-02T07:38:55.600Z,6.22
2023-02-02T07:41:23.423Z,12.13
2023-02-02T07:43:51.559Z,6.25
2023-02-02T07:46:19.763Z,7.53
2023-02-02T07:48:47.205Z,6.47
2023-02-02T07:51:18.424Z,7.32
2023-02-02T07:53:48.552Z,4.55
2023-02-02T07:56:19.982Z,7.13
2023-02-02T07:58:47.426Z,9.00
2023-02-02T08:01:16.410Z,6.82
2023-02-02T08:03:44.293Z,4.65
2023-02-02T08:06:26.621Z,5.30
2023-02-02T08:08:53.356Z,7.45
2023-02-02T08:11:22.581Z,6.53
2023-02-02T08:13:56.056Z,6.10
2023-02-02T08:16:26.757Z,7.03
2023-02-02T08:18:54.056Z,6.95
2023-02-02T08:21:21.972Z,3.15
2023-02-02T08:23:49.922Z,6.30
2023-02-02T08:26:27.020Z,9.52
2023-02-02T08:29:03.778Z,7.07
2023-02-02T08:31:37.149Z,6.28
2023-02-02T08:34:05.284Z,8.80
2023-02-02T08:36:33.822Z,8.02
2023-02-02T08:39:05.801Z,9.27
2023-02-02T08:41:32.782Z,8.57
2023-02-02T08:43:59.755Z,8.45
2023-02-02T08:46:26.869Z,9.18
2023-02-02T08:48:54.012Z,7.97
2023-02-02T08:51:20.810Z,7.18
2023-02-02T08:53:48.123Z,7.30
2023-02-02T08:56:18.689Z,10.13
2023-02-02T08:58:52.347Z,6.65
2023-02-02T09:01:27.433Z,9.00
2023-02-02T09:04:04.952Z,7.53
2023-02-02T09:06:38.280Z,7.38
2023-02-02T09:09:08.045Z,8.88
2023-02-02T09:11:35.960Z,6.40
2023-02-02T09:14:03.896Z,7.68
2023-02-02T09:16:31.295Z,6.05
2023-02-02T09:18:58.282Z,7.43
2023-02-02T09:21:26.191Z,7.10
2023-02-02T09:23:54.559Z,5.65
2023-02-02T09:26:29.729Z,6.45
2023-02-02T09:29:05.604Z,7.30
2023-02-02T09:31:37.839Z,7.35
2023-02-02T09:34:08.949Z,7.40
2023-02-02T09:36:37.860Z,8.85
2023-02-02T09:39:06.142Z,7.78
2023-02-02T09:41:38.827Z,5.78
2023-02-02T09:44:39.446Z,9.20
2023-02-02T09:47:37.242Z,8.68
2023-02-02T09:50:26.601Z,9.73
2023-02-02T09:53:38.458Z,9.50
2023-02-02T09:59:02.129Z,8.93
2023-02-02T10:01:38.199Z,4.63
2023-02-02T10:04:37.169Z,4.88
2023-02-02T10:07:20.482Z,5.15
2023-02-02T10:10:02.453Z,7.28
2023-02-02T10:12:32.339Z,6.85
2023-02-02T10:15:26.089Z,4.82
2023-02-02T10:18:12.143Z,4.70
2023-02-02T10:20:51.961Z,6.25
2023-02-02T10:23:29.052Z,10.77
2023-02-02T10:26:17.273Z,4.35
2023-02-02T10:29:07.879Z,5.03
2023-02-02T10:31:49.649Z,6.07
2023-02-02T10:34:20.916Z,6.50
2023-02-02T10:37:02.310Z,6.35
2023-02-02T10:39:55.317Z,4.78
2023-02-02T10:43:12.833Z,2.42
2023-02-02T10:45:43.755Z,4.72
2023-02-02T10:48:23.791Z,5.10
2023-02-02T10:50:54.928Z,1.75
2023-02-02T10:53:26.036Z,4.53
2023-02-02T10:56:11.916Z,2.78
2023-02-02T10:59:06.073Z,4.13
2023-02-02T11:01:33.117Z,4.25
2023-02-02T11:04:22.957Z,5.18
2023-02-02T11:06:50.285Z,2.22
2023-02-02T11:09:41.397Z,4.68
2023-02-02T11:12:23.572Z,2.08
2023-02-02T11:14:57.176Z,2.78
2023-02-02T11:17:26.153Z,1.70
2023-02-02T11:19:55.808Z,1.73
2023-02-02T11:22:35.851Z,3.38
2023-02-02T11:25:27.847Z,4.90
2023-02-02T11:27:54.693Z,3.45
2023-02-02T11:30:34.200Z,1.45
2023-02-02T11:33:33.714Z,2.88
2023-02-02T11:36:08.168Z,3.30
2023-02-02T11:38:35.020Z,3.40
2023-02-02T11:41:11.046Z,2.28
2023-02-02T11:43:48.439Z,1.80
2023-02-02T11:46:27.961Z,2.38
2023-02-02T11:49:18.034Z,1.65
2023-02-02T11:52:01.634Z,5.55
2023-02-02T11:54:38.233Z,2.80
2023-02-02T11:57:10.548Z,2.45
2023-02-02T11:59:40.708Z,2.65
2023-02-02T12:02:16.370Z,4.15
2023-02-02T12:04:43.601Z,2.97
2023-02-02T12:07:32.157Z,5.32
2023-02-02T12:10:21.877Z,1.50
2023-02-02T12:13:08.898Z,3.85
2023-02-02T12:16:18.041Z,4.15
2023-02-02T12:19:06.604Z,3.70
2023-02-02T12:21:42.456Z,3.10
2023-02-02T12:24:31.513Z,3.50
2023-02-02T12:27:14.279Z,2.67
2023-02-02T12:30:28.970Z,4.40
2023-02-02T12:33:10.573Z,3.30
2023-02-02T12:35:57.554Z,3.88
2023-02-02T12:38:48.856Z,2.72
2023-02-02T12:42:09.305Z,3.53
2023-02-02T12:45:10.733Z,6.30
2023-02-02T12:48:05.896Z,4.45
2023-02-02T12:51:23.023Z,3.72
2023-02-02T12:54:32.726Z,6.57
2023-02-02T12:57:01.594Z,6.32
2023-02-02T12:59:52.785Z,5.07
2023-02-02T13:03:02.192Z,2.70
2023-02-02T13:05:41.083Z,3.33
2023-02-02T13:08:17.004Z,2.90
2023-02-02T13:10:49.645Z,3.92
2023-02-02T13:13:26.720Z,1.98
2023-02-02T13:16:00.040Z,5.15
2023-02-02T13:18:34.819Z,5.22
2023-02-02T13:21:15.476Z,2.72
2023-02-02T13:23:56.930Z,4.72
2023-02-02T13:26:37.796Z,5.20
2023-02-02T13:29:10.609Z,6.78
2023-02-02T13:31:50.379Z,3.92
2023-02-02T13:34:24.993Z,5.63
2023-02-02T13:37:02.799Z,7.85
2023-02-02T13:39:56.894Z,4.70
2023-02-02T13:42:56.609Z,6.03
2023-02-02T13:45:38.369Z,4.63
2023-02-02T13:48:39.061Z,6.15
2023-02-02T13:51:39.177Z,5.30
2023-02-02T13:54:58.921Z,4.68
2023-02-02T14:01:02.368Z,8.48
2023-02-02T14:03:40.354Z,4.80
2023-02-02T14:06:10.300Z,3.88
2023-02-02T14:08:37.964Z,5.85
2023-02-02T14:11:08.647Z,3.58
2023-02-02T14:14:01.635Z,5.78
2023-02-02T14:16:31.427Z,6.55
2023-02-02T14:19:33.734Z,4.53
2023-02-02T14:22:19.108Z,9.93
2023-02-02T14:24:53.924Z,6.00
2023-02-02T14:27:30.162Z,7.03
2023-02-02T14:29:56.972Z,4.38
2023-02-02T14:32:29.436Z,4.57
2023-02-02T14:35:08.562Z,4.97
2023-02-02T14:37:50.604Z,6.70
2023-02-02T14:40:33.982Z,5.18
2023-02-02T14:43:44.994Z,9.45
2023-02-02T14:46:14.500Z,3.35
2023-02-02T14:48:59.552Z,3.90
2023-02-02T14:51:31.529Z,4.97
2023-02-02T14:54:05.965Z,6.88
2023-02-02T14:56:51.630Z,4.10
2023-02-02T14:59:30.925Z,4.28
2023-02-02T15:02:12.558Z,6.75
2023-02-02T15:04:39.424Z,7.35
2023-02-02T15:07:24.511Z,9.88
2023-02-02T15:09:56.665Z,6.65
2023-02-02T15:12:32.629Z,9.32
2023-02-02T15:15:31.849Z,5.65
2023-02-02T15:18:15.010Z,8.13
2023-02-02T15:20:50.239Z,4.57
2023-02-02T15:23:44.509Z,3.40
2023-02-02T15:26:42.960Z,4.55
2023-02-02T15:29:44.704Z,3.83
2023-02-02T15:32:25.598Z,3.65
2023-02-02T15:34:58.766Z,3.67
2023-02-02T15:37:36.207Z,6.05
2023-02-02T15:40:08.905Z,4.43
2023-02-02T15:42:55.459Z,3.55
2023-02-02T15:45:28.342Z,3.92
2023-02-02T15:47:58.248Z,4.20
2023-02-02T15:50:25.695Z,6.68
2023-02-02T15:52:54.278Z,3.88
2023-02-02T15:55:32.364Z,5.70
2023-02-02T15:57:59.397Z,7.10
2023-02-02T16:00:38.285Z,6.10
2023-02-02T16:03:15.261Z,4.70
2023-02-02T16:05:43.311Z,6.97
2023-02-02T16:08:25.751Z,5.05
2023-02-02T16:11:11.177Z,8.05
2023-02-02T16:16:23.143Z,4.55
2023-02-02T16:19:22.771Z,5.88
2023-02-02T16:21:54.614Z,3.97
2023-02-02T16:24:30.015Z,5.75
2023-02-02T16:27:00.688Z,4.97
2023-02-02T16:29:28.776Z,8.02
2023-02-02T16:31:56.903Z,4.82
2023-02-02T16:34:41.831Z,5.88
2023-02-02T16:37:32.272Z,5.28
2023-02-02T16:40:30.524Z,4.90
2023-02-02T16:43:25.971Z,6.63
2023-02-02T16:45:56.308Z,6.88
2023-02-02T16:48:33.661Z,6.18
2023-02-02T16:51:09.417Z,11.52
2023-02-02T16:53:37.460Z,7.03
2023-02-02T16:56:06.013Z,3.70
2023-02-02T16:58:40.801Z,5.95
2023-02-02T17:01:15.853Z,6.97
2023-02-02T17:03:53.841Z,5.53
2023-02-02T17:06:41.762Z,5.18
2023-02-02T17:09:34.153Z,8.25
2023-02-02T17:12:32.200Z,10.45
2023-02-02T17:15:11.633Z,8.00
2023-02-02T17:17:38.718Z,8.75
2023-02-02T17:20:05.895Z,5.07
2023-02-02T17:22:38.217Z,6.43
2023-02-02T17:25:05.665Z,9.45
2023-02-02T17:27:35.819Z,13.50
2023-02-02T17:30:04.931Z,8.25
2023-02-02T17:32:31.768Z,8.00
2023-02-02T17:34:58.940Z,11.00
2023-02-02T17:37:25.977Z,6.63
2023-02-02T17:39:52.821Z,8.75
2023-02-02T17:42:27.908Z,5.50
2023-02-02T17:47:21.637Z,9.60
2023-02-02T17:49:48.444Z,8.50
2023-02-02T17:52:15.258Z,7.80
2023-02-02T17:54:42.063Z,7.28
2023-02-02T17:57:08.843Z,5.65
2023-02-02T17:59:35.658Z,9.13
2023-02-02T18:02:02.529Z,7.38
2023-02-02T18:04:29.314Z,6.93
2023-02-02T18:06:56.157Z,7.38
2023-02-02T18:09:23.286Z,5.32
2023-02-02T18:11:50.104Z,11.77
2023-02-02T18:14:16.903Z,8.32
2023-02-02T18:16:43.719Z,6.53
2023-02-02T18:19:10.676Z,9.98
2023-02-02T18:21:37.652Z,5.53
2023-02-02T18:24:04.803Z,7.07
2023-02-02T18:26:32.761Z,6.28
2023-02-02T18:28:59.760Z,5.32
2023-02-02T18:31:27.322Z,6.03
2023-02-02T18:33:54.637Z,7.72
2023-02-02T18:36:23.693Z,8.13
2023-02-02T18:38:53.844Z,4.63
2023-02-02T18:41:21.706Z,7.50
2023-02-02T18:43:48.789Z,5.00
2023-02-02T18:46:17.407Z,6.95
2023-02-02T18:48:45.447Z,7.75
2023-02-02T18:51:18.285Z,4.97
2023-02-02T18:53:48.515Z,5.30
2023-02-02T18:56:15.852Z,4.88
2023-02-02T18:58:42.738Z,7.55
2023-02-02T19:01:17.093Z,4.45
2023-02-02T19:03:50.101Z,7.78
2023-02-02T19:06:36.986Z,7.28
2023-02-02T19:09:04.925Z,7.72
2023-02-02T19:11:43.251Z,4.30
2023-02-02T19:14:16.847Z,7.82
2023-02-02T19:16:47.425Z,7.15
2023-02-02T19:19:17.341Z,6.20
2023-02-02T19:21:44.236Z,6.18
2023-02-02T19:24:13.806Z,6.68
2023-02-02T19:26:46.138Z,10.63
2023-02-02T19:29:36.107Z,8.48
2023-02-02T19:32:15.191Z,9.65
2023-02-02T19:34:42.172Z,10.73
2023-02-02T19:37:32.221Z,11.75
2023-02-02T19:40:08.493Z,10.13
2023-02-02T19:42:44.679Z,8.05
2023-02-02T19:45:45.221Z,12.88
2023-02-02T19:48:24.178Z,8.85
2023-02-02T19:50:50.998Z,10.70
2023-02-02T19:53:29.272Z,10.02
2023-02-02T19:55:56.250Z,9.48
2023-02-02T19:58:37.589Z,11.02
2023-02-02T20:01:18.752Z,11.07
2023-02-02T20:03:46.813Z,9.73
2023-02-02T20:06:26.841Z,9.70
2023-02-02T20:08:54.021Z,13.40
2023-02-02T20:11:24.164Z,10.57
2023-02-02T20:13:51.817Z,5.40
2023-02-02T20:16:23.973Z,9.70
2023-02-02T20:18:58.189Z,11.10
2023-02-02T20:21:46.631Z,9.77
2023-02-02T20:24:31.474Z,6.60
2023-02-02T20:27:05.462Z,9.77
2023-02-02T20:29:43.579Z,9.48
2023-02-02T20:32:34.482Z,8.32
2023-02-02T20:35:21.491Z,9.43
2023-02-02T20:37:48.399Z,10.65
2023-02-02T20:40:21.305Z,12.98
2023-02-02T20:42:49.591Z,9.27
2023-02-02T20:45:17.853Z,8.80
2023-02-02T20:47:46.073Z,12.05
2023-02-02T20:50:16.334Z,13.63
2023-02-02T20:52:44.099Z,11.65
2023-02-02T20:55:11.834Z,12.05
2023-02-02T20:57:38.827Z,10.25
2023-02-02T21:00:09.396Z,10.48
2023-02-02T21:02:36.417Z,7.88
2023-02-02T21:05:03.361Z,8.10
2023-02-02T21:07:30.933Z,8.40
2023-02-02T21:09:58.031Z,11.43
2023-02-02T21:12:25.809Z,11.82
2023-02-02T21:14:55.841Z,7.63
2023-02-02T21:17:23.055Z,10.63
2023-02-02T21:19:50.473Z,7.15
2023-02-02T21:22:17.309Z,8.57
2023-02-02T21:24:44.399Z,10.98
2023-02-02T21:27:11.267Z,11.45
2023-02-02T21:29:38.617Z,9.65
2023-02-02T21:32:06.286Z,9.40
2023-02-02T21:34:33.504Z,10.20
2023-02-02T21:37:00.621Z,10.00
2023-02-02T21:39:36.810Z,11.35
2023-02-02T21:42:09.673Z,7.75
2023-02-02T21:44:44.766Z,7.68
2023-02-02T21:50:20.881Z,11.65
2023-02-02T21:52:47.826Z,8.20
2023-02-02T21:55:36.932Z,8.85
2023-02-02T21:58:46.346Z,11.52
2023-02-02T22:01:36.572Z,9.40
2023-02-02T22:04:03.894Z,9.13
2023-02-02T22:06:36.778Z,10.00
2023-02-02T22:09:12.506Z,11.20
2023-02-02T22:12:02.714Z,6.70
2023-02-02T22:14:42.375Z,9.27
2023-02-02T22:17:42.593Z,8.63
2023-02-02T22:20:15.663Z,9.52
2023-02-02T22:22:48.476Z,6.97
2023-02-02T22:25:18.726Z,10.52
2023-02-02T22:27:51.075Z,9.73
2023-02-02T22:30:27.726Z,10.32
2023-02-02T22:32:55.673Z,8.27
2023-02-02T22:35:22.673Z,7.97
2023-02-02T22:37:49.694Z,9.65
2023-02-02T22:40:16.784Z,12.40
2023-02-02T22:42:43.976Z,7.78
2023-02-02T22:45:11.300Z,6.18
2023-02-02T22:47:38.323Z,10.98
2023-02-02T22:50:05.992Z,9.35
2023-02-02T22:52:35.858Z,11.70
2023-02-02T22:55:02.977Z,12.30
2023-02-02T22:57:29.970Z,12.48
2023-02-02T22:59:56.735Z,9.52
2023-02-02T23:02:23.647Z,10.95
2023-02-02T23:04:50.541Z,10.18
2023-02-02T23:07:17.472Z,7.22
2023-02-02T23:09:44.281Z,13.70
2023-02-02T23:12:11.032Z,14.50
2023-02-02T23:14:37.917Z,12.32
2023-02-02T23:17:04.815Z,8.98
2023-02-02T23:19:31.673Z,8.50
2023-02-02T23:21:58.498Z,10.13
2023-02-02T23:24:25.264Z,8.00
2023-02-02T23:26:52.016Z,6.18
2023-02-02T23:29:19.167Z,7.20
2023-02-02T23:31:45.985Z,12.35
2023-02-02T23:34:12.784Z,13.75
2023-02-02T23:36:40.116Z,8.25
2023-02-02T23:39:06.918Z,13.75
2023-02-02T23:41:33.745Z,8.90
2023-02-02T23:44:00.707Z,13.60
2023-02-02T23:46:27.844Z,13.25
2023-02-02T23:48:54.966Z,6.63
2023-02-02T23:51:21.823Z,8.63
2023-02-02T23:53:48.741Z,7.30
2023-02-02T23:56:16.463Z,5.22
2023-02-02T23:58:43.647Z,12.50
